createdAt,value
2022-09-28T00:01:27.441Z,97730.81
2022-09-28T00:10:59.836Z,97723.67
2022-09-28T00:20:34.230Z,97702.77
2022-09-28T00:30:09.867Z,97688.16
2022-09-28T00:39:42.059Z,97673.47
2022-09-28T00:49:16.576Z,97665.58
2022-09-28T00:58:50.519Z,97653.23
2022-09-28T01:08:24.925Z,97625.23
2022-09-28T01:18:00.162Z,97617.83
2022-09-28T01:27:32.658Z,97608.06
2022-09-28T01:37:06.875Z,97606.31
2022-09-28T01:46:41.251Z,97600.28
2022-09-28T01:56:16.609Z,97600.56
2022-09-28T02:05:49.078Z,97591.01
2022-09-28T02:15:22.901Z,97587.78
2022-09-28T02:24:58.463Z,97582.16
2022-09-28T02:34:33.663Z,97570.09
2022-09-28T02:44:06.740Z,97582.78
2022-09-28T02:53:39.446Z,97583.39
2022-09-28T03:03:14.978Z,97579.34
2022-09-28T03:12:47.298Z,97586.77
2022-09-28T03:22:23.184Z,97589.84
2022-09-28T03:31:56.433Z,97586.58
2022-09-28T03:41:29.517Z,97597.84
2022-09-28T03:51:05.230Z,97580.24
2022-09-28T04:00:37.629Z,97566.00
2022-09-28T04:10:11.463Z,97579.73
2022-09-28T04:19:46.757Z,97578.84
2022-09-28T04:29:20.337Z,97581.00
2022-09-28T04:38:54.531Z,97592.48
2022-09-28T04:48:26.583Z,97600.25
2022-09-28T04:57:59.753Z,97603.29
2022-09-28T05:07:34.174Z,97614.69
2022-09-28T05:17:08.060Z,97620.40
2022-09-28T05:26:43.547Z,97624.21
2022-09-28T05:36:15.645Z,97633.47
2022-09-28T05:45:52.994Z,97638.20
2022-09-28T05:55:23.313Z,97651.24
2022-09-28T06:04:56.495Z,97652.92
2022-09-28T06:14:30.373Z,97653.02
2022-09-28T06:24:05.846Z,97667.39
2022-09-28T06:33:37.847Z,97680.31
2022-09-28T06:43:12.081Z,97680.97
2022-09-28T06:52:47.872Z,97689.15
2022-09-28T07:02:20.324Z,97698.13
2022-09-28T07:11:56.079Z,97719.99
2022-09-28T07:21:30.361Z,97727.47
2022-09-28T07:31:04.669Z,97740.56
2022-09-28T07:40:37.246Z,97752.78
2022-09-28T07:50:11.576Z,97773.36
2022-09-28T07:59:46.291Z,97785.96
2022-09-28T08:09:20.532Z,97791.34
2022-09-28T08:18:55.016Z,97807.14
2022-09-28T08:28:31.199Z,97817.11
2022-09-28T08:38:04.191Z,97824.61
2022-09-28T08:39:06.649Z,97827.04
2022-09-28T08:48:41.967Z,97831.06
2022-09-28T08:49:44.373Z,97829.14
2022-09-28T08:50:46.800Z,97834.39
2022-09-28T08:51:49.218Z,97837.14
2022-09-28T08:52:51.710Z,97840.52
2022-09-28T08:53:55.698Z,97837.84
2022-09-28T08:54:58.036Z,97837.88
2022-09-28T08:56:00.546Z,97836.24
2022-09-28T08:57:04.519Z,97836.84
2022-09-28T08:58:06.876Z,97838.02
2022-09-28T08:59:09.339Z,97841.36
2022-09-28T09:00:13.344Z,97836.34
2022-09-28T09:09:43.887Z,97839.73
2022-09-28T09:10:48.170Z,97839.65
2022-09-28T09:11:52.049Z,97840.51
2022-09-28T09:12:54.375Z,97836.73
2022-09-28T09:13:56.774Z,97837.34
2022-09-28T09:15:00.843Z,97843.96
2022-09-28T09:24:33.791Z,97844.93
2022-09-28T09:25:38.569Z,97841.86
2022-09-28T09:26:40.010Z,97840.37
2022-09-28T09:27:42.474Z,97843.75
2022-09-28T09:28:46.553Z,97843.65
2022-09-28T09:29:48.842Z,97844.63
2022-09-28T09:30:51.383Z,97845.14
2022-09-28T09:31:53.726Z,97841.59
2022-09-28T09:32:56.183Z,97844.48
2022-09-28T09:34:00.228Z,97844.25
2022-09-28T09:35:02.537Z,97840.56
2022-09-28T09:36:04.997Z,97846.55
2022-09-28T09:37:09.075Z,97847.61
2022-09-28T09:38:11.396Z,97842.83
2022-09-28T09:39:13.831Z,97840.98
2022-09-28T09:40:16.333Z,97843.55
2022-09-28T09:41:18.730Z,97848.09
2022-09-28T09:42:21.241Z,97846.00
2022-09-28T09:43:26.735Z,97846.15
2022-09-28T09:44:29.114Z,97843.70
2022-09-28T09:45:31.447Z,97842.91
2022-09-28T09:46:35.476Z,97845.05
2022-09-28T09:47:37.847Z,97844.44
2022-09-28T09:48:40.342Z,97846.73
2022-09-28T09:58:12.372Z,97849.82
2022-09-28T09:59:14.878Z,97855.75
2022-09-28T10:00:17.263Z,97850.51
2022-09-28T10:01:19.759Z,97849.89
2022-09-28T10:02:22.147Z,97849.25
2022-09-28T10:03:24.606Z,97851.79
2022-09-28T10:04:28.657Z,97852.21
2022-09-28T10:05:30.956Z,97855.28
2022-09-28T10:06:37.150Z,97854.94
2022-09-28T10:07:43.378Z,97855.77
2022-09-28T10:08:44.777Z,97852.77
2022-09-28T10:09:47.108Z,97853.62
2022-09-28T10:10:49.609Z,97858.92
2022-09-28T10:11:52.067Z,97856.66
2022-09-28T10:12:54.479Z,97856.83
2022-09-28T10:13:57.113Z,97852.86
2022-09-28T10:14:59.555Z,97857.50
2022-09-28T10:16:01.973Z,97854.31
2022-09-28T10:17:04.495Z,97853.85
2022-09-28T10:18:06.911Z,97853.55
2022-09-28T10:19:09.380Z,97853.52
2022-09-28T10:20:11.835Z,97854.61
2022-09-28T10:21:14.238Z,97854.52
2022-09-28T10:22:18.329Z,97854.76
2022-09-28T10:23:20.736Z,97847.06
2022-09-28T10:24:24.790Z,97849.45
2022-09-28T10:25:27.054Z,97844.27
2022-09-28T10:26:31.146Z,97847.47
2022-09-28T10:27:33.482Z,97845.43
2022-09-28T10:28:35.909Z,97850.19
2022-09-28T10:29:38.299Z,97848.33
2022-09-28T10:30:42.424Z,97849.95
2022-09-28T10:31:44.684Z,97851.80
2022-09-28T10:32:48.724Z,97853.23
2022-09-28T10:33:51.138Z,97855.87
2022-09-28T10:34:53.489Z,97849.38
2022-09-28T10:35:55.929Z,97856.05
2022-09-28T10:36:58.399Z,97855.85
2022-09-28T10:38:00.904Z,97852.38
2022-09-28T10:39:03.370Z,97856.86
2022-09-28T10:40:05.949Z,97859.21
2022-09-28T10:41:09.128Z,97861.11
2022-09-28T10:42:11.695Z,97867.60
2022-09-28T10:43:14.093Z,97872.05
2022-09-28T10:44:18.387Z,97868.35
2022-09-28T10:45:21.580Z,97868.53
2022-09-28T10:46:26.951Z,97869.33
2022-09-28T10:47:29.161Z,97868.63
2022-09-28T10:48:33.202Z,97870.20
2022-09-28T10:49:35.483Z,97869.48
2022-09-28T10:50:37.955Z,97871.05
2022-09-28T10:51:40.569Z,97870.55
2022-09-28T10:52:42.968Z,97872.92
2022-09-28T10:53:47.018Z,97876.07
2022-09-28T10:54:50.864Z,97877.66
2022-09-28T10:55:53.213Z,97876.05
2022-09-28T10:56:55.644Z,97873.97
2022-09-28T10:57:59.763Z,97877.75
2022-09-28T10:59:03.664Z,97874.02
2022-09-28T11:00:06.060Z,97875.63
2022-09-28T11:01:08.411Z,97876.42
2022-09-28T11:02:10.817Z,97875.47
2022-09-28T11:03:13.250Z,97881.84
2022-09-28T11:04:15.780Z,97874.80
2022-09-28T11:05:18.204Z,97875.28
2022-09-28T11:06:22.271Z,97876.98
2022-09-28T11:07:24.579Z,97876.30
2022-09-28T11:08:28.055Z,97881.70
2022-09-28T11:09:30.930Z,97877.38
2022-09-28T11:10:32.798Z,97873.86
2022-09-28T11:11:35.236Z,97879.75
2022-09-28T11:12:37.680Z,97878.84
2022-09-28T11:13:41.765Z,97878.44
2022-09-28T11:14:45.700Z,97875.78
2022-09-28T11:15:48.031Z,97872.88
2022-09-28T11:16:50.471Z,97877.23
2022-09-28T11:17:52.919Z,97869.03
2022-09-28T11:18:55.323Z,97871.88
2022-09-28T11:19:57.820Z,97870.28
2022-09-28T11:21:00.992Z,97870.64
2022-09-28T11:22:03.375Z,97871.30
2022-09-28T11:23:05.835Z,97868.70
2022-09-28T11:24:09.346Z,97870.64
2022-09-28T11:25:11.714Z,97875.58
2022-09-28T11:26:18.262Z,97871.63
2022-09-28T11:27:16.594Z,97866.48
2022-09-28T11:28:18.995Z,97874.09
2022-09-28T11:29:21.469Z,97869.77
2022-09-28T11:30:25.499Z,97869.45
2022-09-28T11:31:29.397Z,97864.33
2022-09-28T11:32:33.345Z,97868.15
2022-09-28T11:33:35.665Z,97864.67
2022-09-28T11:34:57.836Z,97869.91
2022-09-28T11:35:40.594Z,97866.75
2022-09-28T11:36:43.124Z,97864.85
2022-09-28T11:37:45.575Z,97861.60
2022-09-28T11:38:47.992Z,97863.39
2022-09-28T11:39:50.576Z,97870.16
2022-09-28T11:40:53.112Z,97868.00
2022-09-28T11:41:55.599Z,97867.60
2022-09-28T11:42:58.155Z,97862.47
2022-09-28T11:44:00.570Z,97864.98
2022-09-28T11:45:03.138Z,97863.23
2022-09-28T11:46:07.230Z,97861.56
2022-09-28T11:47:11.154Z,97857.99
2022-09-28T11:48:15.095Z,97862.02
2022-09-28T11:49:18.999Z,97861.18
2022-09-28T11:50:23.971Z,97854.98
2022-09-28T11:51:25.398Z,97851.77
2022-09-28T11:52:27.743Z,97858.89
2022-09-28T11:53:30.169Z,97855.30
2022-09-28T11:54:34.227Z,97850.91
2022-09-28T11:55:36.838Z,97857.34
2022-09-28T11:56:39.316Z,97856.39
2022-09-28T11:57:41.775Z,97854.41
2022-09-28T11:58:45.978Z,97853.62
2022-09-28T11:59:48.322Z,97850.48
2022-09-28T12:00:52.365Z,97857.06
2022-09-28T12:01:54.767Z,97858.06
2022-09-28T12:02:58.974Z,97858.87
2022-09-28T12:04:01.143Z,97849.24
2022-09-28T12:05:03.644Z,97855.95
2022-09-28T12:06:06.264Z,97857.83
2022-09-28T12:07:08.764Z,97855.58
2022-09-28T12:08:11.201Z,97857.72
2022-09-28T12:09:15.318Z,97863.91
2022-09-28T12:10:19.192Z,97859.17
2022-09-28T12:11:23.376Z,97860.22
2022-09-28T12:12:27.234Z,97862.62
2022-09-28T12:13:29.515Z,97862.58
2022-09-28T12:14:32.327Z,97863.38
2022-09-28T12:15:42.295Z,97860.95
2022-09-28T12:17:41.574Z,97861.91
2022-09-28T12:18:43.832Z,97861.88
2022-09-28T12:19:46.293Z,97863.71
2022-09-28T12:20:50.354Z,97857.45
2022-09-28T12:21:52.721Z,97861.93
2022-09-28T12:22:55.155Z,97859.13
2022-09-28T12:23:57.601Z,97864.41
2022-09-28T12:25:00.073Z,97862.84
2022-09-28T12:26:02.525Z,97861.53
2022-09-28T12:27:04.979Z,97862.13
2022-09-28T12:28:07.426Z,97863.20
2022-09-28T12:29:09.866Z,97862.69
2022-09-28T12:30:14.135Z,97866.76
2022-09-28T12:31:17.852Z,97862.95
2022-09-28T12:32:20.160Z,97869.95
2022-09-28T12:33:22.639Z,97861.47
2022-09-28T12:34:25.038Z,97868.91
2022-09-28T12:35:29.151Z,97863.72
2022-09-28T12:36:31.541Z,97864.23
2022-09-28T12:37:34.019Z,97867.04
2022-09-28T12:38:36.450Z,97865.31
2022-09-28T12:39:53.874Z,97863.28
2022-09-28T12:40:41.389Z,97863.45
2022-09-28T12:41:45.376Z,97864.59
2022-09-28T12:42:49.309Z,97862.13
2022-09-28T12:43:51.604Z,97862.98
2022-09-28T12:44:58.618Z,97861.28
2022-09-28T12:46:13.727Z,97867.92
2022-09-28T12:47:02.087Z,97865.38
2022-09-28T12:48:04.374Z,97862.59
2022-09-28T12:49:56.571Z,97860.59
2022-09-28T12:51:11.696Z,97866.36
2022-09-28T12:52:15.776Z,97864.78
2022-09-28T12:53:19.638Z,97868.31
2022-09-28T12:54:23.533Z,97874.98
2022-09-28T13:03:54.016Z,97873.30
2022-09-28T13:04:58.103Z,97864.38
2022-09-28T13:06:00.501Z,97863.59
2022-09-28T13:07:02.994Z,97864.52
2022-09-28T13:08:05.353Z,97863.80
2022-09-28T13:09:07.833Z,97866.42
2022-09-28T13:10:10.292Z,97864.87
2022-09-28T13:11:14.358Z,97864.67
2022-09-28T13:12:16.653Z,97867.91
2022-09-28T13:13:19.112Z,97868.41
2022-09-28T13:14:23.172Z,97868.44
2022-09-28T13:15:29.425Z,97866.80
2022-09-28T13:16:33.166Z,97865.35
2022-09-28T13:17:35.373Z,97861.81
2022-09-28T13:18:37.823Z,97868.89
2022-09-28T13:19:41.917Z,97860.91
2022-09-28T13:20:44.192Z,97864.00
2022-09-28T13:21:46.699Z,97865.23
2022-09-28T13:22:50.716Z,97873.39
2022-09-28T13:23:57.825Z,97875.00
2022-09-28T13:24:55.495Z,97872.45
2022-09-28T13:25:57.930Z,97866.75
2022-09-28T13:27:00.500Z,97864.96
2022-09-28T13:28:02.965Z,97868.98
2022-09-28T13:29:05.401Z,97869.73
2022-09-28T13:30:07.912Z,97867.97
2022-09-28T13:31:10.331Z,97866.88
2022-09-28T13:32:12.870Z,97869.48
2022-09-28T13:33:17.014Z,97866.35
2022-09-28T13:34:21.077Z,97864.09
2022-09-28T13:35:24.990Z,97862.01
2022-09-28T13:36:28.904Z,97858.19
2022-09-28T13:37:31.179Z,97860.38
2022-09-28T13:38:33.630Z,97862.17
2022-09-28T13:39:36.043Z,97860.22
2022-09-28T13:40:38.529Z,97860.01
2022-09-28T13:41:40.921Z,97863.16
2022-09-28T13:42:44.994Z,97861.90
2022-09-28T13:43:47.389Z,97864.13
2022-09-28T13:44:51.401Z,97863.51
2022-09-28T13:45:53.910Z,97859.16
2022-09-28T13:46:56.190Z,97856.89
2022-09-28T13:47:58.632Z,97853.14
2022-09-28T13:49:01.024Z,97857.52
2022-09-28T13:50:03.718Z,97856.64
2022-09-28T13:51:07.787Z,97854.91
2022-09-28T13:52:10.056Z,97856.38
2022-09-28T13:53:14.133Z,97855.23
2022-09-28T13:54:16.547Z,97853.08
2022-09-28T13:55:20.517Z,97855.53
2022-09-28T13:56:24.424Z,97857.90
2022-09-28T13:57:26.793Z,97862.70
2022-09-28T13:58:29.221Z,97863.16
2022-09-28T13:59:31.707Z,97862.59
2022-09-28T14:00:35.802Z,97859.19
2022-09-28T14:01:38.086Z,97863.66
2022-09-28T14:02:40.518Z,97863.35
2022-09-28T14:03:44.590Z,97864.20
2022-09-28T14:04:46.994Z,97860.97
2022-09-28T14:05:49.457Z,97866.28
2022-09-28T14:06:54.899Z,97860.95
2022-09-28T14:07:57.142Z,97866.19
2022-09-28T14:08:58.429Z,97860.59
2022-09-28T14:10:00.982Z,97862.61
2022-09-28T14:11:03.426Z,97868.07
2022-09-28T14:12:07.465Z,97869.48
2022-09-28T14:13:09.871Z,97866.02
2022-09-28T14:14:12.302Z,97863.39
2022-09-28T14:15:14.787Z,97862.66
2022-09-28T14:16:17.329Z,97865.88
2022-09-28T14:17:19.756Z,97871.80
2022-09-28T14:18:23.972Z,97866.65
2022-09-28T14:19:26.434Z,97865.81
2022-09-28T14:20:28.869Z,97867.55
2022-09-28T14:21:31.326Z,97870.83
2022-09-28T14:22:33.781Z,97872.54
2022-09-28T14:23:36.322Z,97875.19
2022-09-28T14:24:40.411Z,97872.63
2022-09-28T14:25:42.739Z,97875.16
2022-09-28T14:26:46.781Z,97873.38
2022-09-28T14:27:49.138Z,97871.19
2022-09-28T14:28:51.575Z,97873.59
2022-09-28T14:29:54.010Z,97875.45
2022-09-28T14:30:56.519Z,97872.82
2022-09-28T14:31:58.951Z,97871.66
2022-09-28T14:33:01.365Z,97873.67
2022-09-28T14:34:03.877Z,97875.53
2022-09-28T14:35:06.392Z,97872.45
2022-09-28T14:36:09.838Z,97872.94
2022-09-28T14:37:12.203Z,97872.59
2022-09-28T14:38:16.224Z,97872.92
2022-09-28T14:39:19.759Z,97874.52
2022-09-28T14:40:21.949Z,97875.98
2022-09-28T14:41:25.999Z,97871.34
2022-09-28T14:42:28.277Z,97879.66
2022-09-28T14:43:30.723Z,97874.77
2022-09-28T14:44:33.166Z,97874.76
2022-09-28T14:45:35.604Z,97876.95
2022-09-28T14:46:38.240Z,97876.66
2022-09-28T14:47:40.686Z,97878.32
2022-09-28T14:48:43.096Z,97878.32
2022-09-28T14:49:45.557Z,97874.12
2022-09-28T14:50:47.985Z,97874.08
2022-09-28T14:51:50.873Z,97878.54
2022-09-28T14:52:53.206Z,97874.69
2022-09-28T14:53:55.770Z,97876.71
2022-09-28T14:54:59.869Z,97876.91
2022-09-28T14:56:02.286Z,97875.11
2022-09-28T14:57:04.698Z,97878.38
2022-09-28T14:58:08.733Z,97876.03
2022-09-28T14:59:11.026Z,97875.19
2022-09-28T15:00:15.069Z,97879.68
2022-09-28T15:01:18.998Z,97879.93
2022-09-28T15:02:21.359Z,97878.50
2022-09-28T15:03:23.792Z,97880.75
2022-09-28T15:04:26.856Z,97882.79
2022-09-28T15:05:29.278Z,97879.58
2022-09-28T15:06:33.308Z,97883.22
2022-09-28T15:07:37.246Z,97883.89
2022-09-28T15:08:39.861Z,97880.80
2022-09-28T15:09:42.295Z,97883.18
2022-09-28T15:10:44.750Z,97885.47
2022-09-28T15:11:47.214Z,97887.92
2022-09-28T15:12:49.643Z,97887.52
2022-09-28T15:13:53.717Z,97886.73
2022-09-28T15:14:56.022Z,97889.19
2022-09-28T15:16:00.151Z,97887.07
2022-09-28T15:17:02.672Z,97885.38
2022-09-28T15:18:05.189Z,97888.13
2022-09-28T15:19:09.214Z,97885.55
2022-09-28T15:20:13.226Z,97885.75
2022-09-28T15:21:17.219Z,97886.91
2022-09-28T15:22:20.553Z,97883.42
2022-09-28T15:23:24.501Z,97882.69
2022-09-28T15:24:28.475Z,97881.29
2022-09-28T15:25:32.400Z,97886.36
2022-09-28T15:26:34.727Z,97884.15
2022-09-28T15:27:37.194Z,97881.70
2022-09-28T15:28:39.653Z,97882.77
2022-09-28T15:29:43.677Z,97882.65
2022-09-28T15:30:46.088Z,97880.89
2022-09-28T15:31:53.647Z,97886.27
2022-09-28T15:32:53.439Z,97886.09
2022-09-28T15:33:57.369Z,97883.86
2022-09-28T15:34:59.655Z,97888.11
2022-09-28T15:36:02.120Z,97890.95
2022-09-28T15:37:04.537Z,97886.23
2022-09-28T15:38:06.998Z,97890.98
2022-09-28T15:39:09.444Z,97887.86
2022-09-28T15:40:13.521Z,97888.89
2022-09-28T15:41:15.845Z,97888.69
2022-09-28T15:42:18.314Z,97891.00
2022-09-28T15:43:22.367Z,97889.39
2022-09-28T15:44:24.762Z,97893.50
2022-09-28T15:45:27.237Z,97889.64
2022-09-28T15:46:31.272Z,97890.05
2022-09-28T15:47:35.174Z,97895.41
2022-09-28T15:48:37.496Z,97892.62
2022-09-28T15:49:39.882Z,97895.16
2022-09-28T15:50:43.922Z,97899.02
2022-09-28T15:51:47.916Z,97900.52
2022-09-28T15:52:51.848Z,97899.77
2022-09-28T15:53:55.706Z,97901.19
2022-09-28T15:54:58.067Z,97900.98
2022-09-28T15:56:00.478Z,97903.52
2022-09-28T15:57:02.948Z,97900.88
2022-09-28T15:58:06.991Z,97905.81
2022-09-28T15:59:09.330Z,97903.92
2022-09-28T16:00:11.786Z,97903.73
2022-09-28T16:01:14.271Z,97905.48
2022-09-28T16:02:16.896Z,97897.84
2022-09-28T16:03:19.259Z,97902.30
2022-09-28T16:04:21.680Z,97903.89
2022-09-28T16:05:25.722Z,97901.35
2022-09-28T16:06:29.671Z,97901.66
2022-09-28T16:07:32.027Z,97903.63
2022-09-28T16:08:36.069Z,97899.06
2022-09-28T16:09:41.186Z,97902.84
2022-09-28T16:10:42.360Z,97902.50
2022-09-28T16:11:44.772Z,97902.66
2022-09-28T16:12:47.254Z,97901.80
2022-09-28T16:13:51.290Z,97904.44
2022-09-28T16:14:53.891Z,97904.95
2022-09-28T16:15:58.201Z,97903.88
2022-09-28T16:17:01.905Z,97902.20
2022-09-28T16:18:04.248Z,97903.63
2022-09-28T16:19:06.732Z,97906.30
2022-09-28T16:20:09.140Z,97905.18
2022-09-28T16:21:13.227Z,97903.86
2022-09-28T16:22:15.574Z,97905.96
2022-09-28T16:23:18.013Z,97905.59
2022-09-28T16:24:22.015Z,97910.87
2022-09-28T16:25:24.314Z,97907.58
2022-09-28T16:26:28.403Z,97908.91
2022-09-28T16:27:30.752Z,97910.56
2022-09-28T16:28:34.830Z,97910.11
2022-09-28T16:29:37.080Z,97918.28
2022-09-28T16:30:39.552Z,97915.57
2022-09-28T16:31:43.557Z,97915.81
2022-09-28T16:32:45.871Z,97918.28
2022-09-28T16:33:49.296Z,97916.04
2022-09-28T16:34:51.635Z,97912.80
2022-09-28T16:35:55.687Z,97913.28
2022-09-28T16:37:03.001Z,97913.27
2022-09-28T16:38:05.096Z,97914.80
2022-09-28T16:39:07.521Z,97912.78
2022-09-28T16:40:09.982Z,97914.34
2022-09-28T16:41:12.385Z,97913.23
2022-09-28T16:42:16.397Z,97915.89
2022-09-28T16:43:18.771Z,97910.49
2022-09-28T16:44:21.215Z,97913.06
2022-09-28T16:45:23.660Z,97916.58
2022-09-28T16:46:26.119Z,97915.91
2022-09-28T16:47:30.197Z,97922.50
2022-09-28T16:48:32.545Z,97922.89
2022-09-28T16:49:34.914Z,97923.28
2022-09-28T16:50:37.334Z,97927.29
2022-09-28T16:51:41.382Z,97923.55
2022-09-28T16:52:45.314Z,97922.49
2022-09-28T16:53:47.635Z,97925.08
2022-09-28T16:54:50.050Z,97923.22
2022-09-28T16:55:52.535Z,97924.27
2022-09-28T16:56:54.980Z,97924.84
2022-09-28T16:57:57.981Z,97928.30
2022-09-28T16:59:00.429Z,97930.77
2022-09-28T17:00:02.863Z,97934.30
2022-09-28T17:01:05.419Z,97931.33
2022-09-28T17:02:07.800Z,97925.69
2022-09-28T17:03:10.342Z,97927.89
2022-09-28T17:04:12.732Z,97931.13
2022-09-28T17:05:16.819Z,97928.95
2022-09-28T17:14:48.693Z,97946.05
2022-09-28T17:24:22.241Z,97950.84
2022-09-28T17:33:56.775Z,97948.27
2022-09-28T17:43:29.687Z,97961.70
2022-09-28T17:53:01.802Z,97970.47
2022-09-28T18:02:35.851Z,97971.45
2022-09-28T18:12:10.046Z,97973.61
2022-09-28T18:21:44.271Z,97976.58
2022-09-28T18:31:18.447Z,97984.63
2022-09-28T18:40:52.384Z,97987.15
2022-09-28T18:50:26.246Z,97996.45
2022-09-28T19:00:00.161Z,97996.14
2022-09-28T19:09:34.265Z,98007.77
2022-09-28T19:19:08.286Z,98011.98
2022-09-28T19:28:42.100Z,98012.92
2022-09-28T19:38:15.888Z,98009.68
2022-09-28T19:47:51.853Z,98015.59
2022-09-28T19:57:26.691Z,98035.89
2022-09-28T20:06:57.757Z,98041.36
2022-09-28T20:16:31.290Z,98048.31
2022-09-28T20:26:04.996Z,98054.29
2022-09-28T20:35:38.785Z,98059.36
2022-09-28T20:45:12.196Z,98058.47
2022-09-28T20:54:47.683Z,98054.03
2022-09-28T21:04:20.339Z,98060.44
2022-09-28T21:13:55.509Z,98065.11
2022-09-28T21:23:29.325Z,98058.91
2022-09-28T21:33:03.225Z,98066.55
2022-09-28T21:42:34.883Z,98065.94
2022-09-28T21:52:08.935Z,98068.08
2022-09-28T22:01:44.228Z,98070.27
2022-09-28T22:11:15.757Z,98078.97
2022-09-28T22:20:49.268Z,98085.39
2022-09-28T22:30:24.029Z,98098.25
2022-09-28T22:39:58.066Z,98087.99
2022-09-28T22:49:29.857Z,98087.81
2022-09-28T22:59:03.719Z,98090.63
2022-09-28T23:08:39.060Z,98081.22
2022-09-28T23:18:11.306Z,98075.72
2022-09-28T23:27:45.301Z,98090.63
2022-09-28T23:37:19.323Z,98090.38
2022-09-28T23:46:55.254Z,98082.90
2022-09-28T23:56:26.791Z,98085.29
